Time;durP1;ratioP1;P1;durP2;ratioP2;P2;SDS_P1;SDS_P2;PMS_P1;PMS_P2;Temp;Humidity;BMP_temperature;BMP_pressure;BME280_temperature;BME280_humidity;BME280_pressure;Samples;Min_cycle;Max_cycle;Signal;HPM_P1;HPM_P2
2023/07/07 00:01:46;;;;;;;1.77;1.60;;;;;;;;;;8333843;28;20116;-60
2023/07/07 00:05:47;;;;;;;1.98;1.35;;;;;;;;;;8332175;28;20063;-60
2023/07/07 00:09:48;;;;;;;1.95;1.25;;;;;;;;;;8336262;28;20135;-60
2023/07/07 00:13:48;;;;;;;4.33;1.43;;;;;;;;;;8331578;28;20031;-60
2023/07/07 00:17:50;;;;;;;1.50;1.30;;;;;;;;;;8338185;28;20036;-60
2023/07/07 00:21:58;;;;;;;1.20;1.10;;;;;;;;;;8337154;28;20030;-60
2023/07/07 00:25:59;;;;;;;1.40;1.30;;;;;;;;;;8340789;28;20589;-60
2023/07/07 00:29:59;;;;;;;1.40;1.30;;;;;;;;;;8340938;28;20146;-60
2023/07/07 00:34:00;;;;;;;1.42;1.15;;;;;;;;;;8340259;28;20216;-60
2023/07/07 00:38:00;;;;;;;1.40;1.20;;;;;;;;;;8341815;28;20035;-60
2023/07/07 00:42:00;;;;;;;1.67;1.30;;;;;;;;;;8339027;28;20024;-60
2023/07/07 00:46:01;;;;;;;3.08;1.40;;;;;;;;;;8337960;28;20040;-60
2023/07/07 00:50:01;;;;;;;1.55;1.27;;;;;;;;;;8338057;28;20041;-60
2023/07/07 00:54:05;;;;;;;2.70;1.30;;;;;;;;;;8345005;28;20046;-60
2023/07/07 00:58:06;;;;;;;2.92;1.27;;;;;;;;;;8340695;28;20052;-60
2023/07/07 01:02:12;;;;;;;1.40;1.30;;;;;;;;;;8335949;28;20297;-60
2023/07/07 01:06:14;;;;;;;2.20;1.02;;;;;;;;;;8338780;28;20016;-60
2023/07/07 01:10:15;;;;;;;3.13;1.20;;;;;;;;;;8339498;28;20075;-60
2023/07/07 01:14:18;;;;;;;2.35;1.40;;;;;;;;;;8339749;28;20024;-60
2023/07/07 01:18:31;;;;;;;1.50;1.40;;;;;;;;;;8338892;28;20049;-60
2023/07/07 01:22:50;;;;;;;2.65;1.27;;;;;;;;;;8340243;28;20029;-60
2023/07/07 01:27:02;;;;;;;2.95;1.30;;;;;;;;;;8341091;28;20665;-60
2023/07/07 01:31:19;;;;;;;1.60;1.10;;;;;;;;;;8340985;28;20497;-60
2023/07/07 01:35:20;;;;;;;3.47;1.20;;;;;;;;;;8338661;28;20898;-60
2023/07/07 01:39:22;;;;;;;1.95;1.33;;;;;;;;;;8338084;28;20028;-60
2023/07/07 01:43:28;;;;;;;1.83;1.33;;;;;;;;;;8339173;28;20035;-60
2023/07/07 01:47:32;;;;;;;2.92;1.25;;;;;;;;;;8339133;28;20048;-60
2023/07/07 01:51:39;;;;;;;1.63;1.40;;;;;;;;;;8336935;28;20125;-60
2023/07/07 01:55:43;;;;;;;2.65;1.30;;;;;;;;;;8336659;28;20103;-60
2023/07/07 01:59:44;;;;;;;1.40;1.30;;;;;;;;;;8338419;28;20062;-60
2023/07/07 02:03:44;;;;;;;2.42;1.42;;;;;;;;;;8336111;28;20028;-60
2023/07/07 02:07:45;;;;;;;2.45;1.10;;;;;;;;;;8337761;28;20103;-60
2023/07/07 02:11:45;;;;;;;2.30;1.15;;;;;;;;;;8336834;28;20489;-60
2023/07/07 02:15:45;;;;;;;1.90;1.10;;;;;;;;;;8336634;28;20418;-60
2023/07/07 02:19:45;;;;;;;1.90;1.25;;;;;;;;;;8339837;28;20037;-60
2023/07/07 02:23:45;;;;;;;1.67;1.20;;;;;;;;;;8339929;28;20021;-60
2023/07/07 02:27:46;;;;;;;1.45;1.15;;;;;;;;;;8334743;28;20032;-60
2023/07/07 02:31:46;;;;;;;1.30;1.20;;;;;;;;;;8338028;28;20037;-60
2023/07/07 02:35:48;;;;;;;5.28;1.50;;;;;;;;;;8337480;28;20020;-60
2023/07/07 02:39:48;;;;;;;1.67;1.23;;;;;;;;;;8337545;28;20036;-60
2023/07/07 02:43:49;;;;;;;1.50;1.20;;;;;;;;;;8335408;28;20025;-60
2023/07/07 02:47:49;;;;;;;2.00;1.40;;;;;;;;;;8336183;28;20644;-60
2023/07/07 02:51:49;;;;;;;1.40;1.25;;;;;;;;;;8335552;28;20789;-60
2023/07/07 02:55:49;;;;;;;2.50;1.30;;;;;;;;;;8333991;28;20035;-60
2023/07/07 02:59:49;;;;;;;2.13;1.52;;;;;;;;;;8336829;28;20067;-60
2023/07/07 03:03:50;;;;;;;1.40;1.10;;;;;;;;;;8337399;28;20051;-60
2023/07/07 03:07:50;;;;;;;4.10;1.45;;;;;;;;;;8336578;28;20032;-59
2023/07/07 03:11:51;;;;;;;2.00;1.40;;;;;;;;;;8334180;28;20576;-60
2023/07/07 03:15:52;;;;;;;1.13;1.02;;;;;;;;;;8333063;28;20132;-60
2023/07/07 03:19:52;;;;;;;2.53;1.50;;;;;;;;;;8333538;28;20939;-60
2023/07/07 03:23:54;;;;;;;2.75;1.35;;;;;;;;;;8337179;28;20025;-60
2023/07/07 03:27:54;;;;;;;2.42;1.23;;;;;;;;;;8317805;28;20033;-59
2023/07/07 03:31:54;;;;;;;2.67;1.40;;;;;;;;;;8338483;28;20097;-60
2023/07/07 03:35:54;;;;;;;1.40;1.30;;;;;;;;;;8333082;28;20047;-60
2023/07/07 03:39:54;;;;;;;2.38;1.40;;;;;;;;;;8330076;28;20309;-60
2023/07/07 03:43:55;;;;;;;2.15;1.60;;;;;;;;;;8328890;28;20409;-60
2023/07/07 03:47:55;;;;;;;4.03;1.20;;;;;;;;;;8329359;28;20140;-60
2023/07/07 03:51:55;;;;;;;1.10;1.00;;;;;;;;;;8333753;28;21345;-60
2023/07/07 03:55:56;;;;;;;1.63;1.35;;;;;;;;;;8330093;28;20393;-60
2023/07/07 03:59:56;;;;;;;2.38;1.40;;;;;;;;;;8330287;28;20067;-60
2023/07/07 04:03:57;;;;;;;1.30;1.20;;;;;;;;;;8330518;28;20757;-60
2023/07/07 04:07:58;;;;;;;2.88;1.40;;;;;;;;;;8327734;28;20025;-60
2023/07/07 04:11:58;;;;;;;2.03;1.10;;;;;;;;;;8329576;28;20525;-60
2023/07/07 04:15:58;;;;;;;1.85;1.23;;;;;;;;;;8330647;28;20823;-60
2023/07/07 04:19:58;;;;;;;3.87;1.60;;;;;;;;;;8332279;28;20104;-60
2023/07/07 04:23:59;;;;;;;2.00;1.27;;;;;;;;;;8332904;28;20267;-60
2023/07/07 04:28:01;;;;;;;3.25;1.58;;;;;;;;;;8330511;28;20360;-60
2023/07/07 04:32:02;;;;;;;1.55;1.38;;;;;;;;;;8332413;28;20041;-60
2023/07/07 04:36:03;;;;;;;1.98;1.40;;;;;;;;;;8333825;28;20560;-60
2023/07/07 04:40:04;;;;;;;2.13;1.10;;;;;;;;;;8335534;28;20108;-60
2023/07/07 04:44:05;;;;;;;3.83;1.60;;;;;;;;;;8336577;28;20025;-60
2023/07/07 04:48:05;;;;;;;2.42;1.60;;;;;;;;;;8333751;28;20047;-60
2023/07/07 04:52:05;;;;;;;2.00;1.50;;;;;;;;;;8333826;28;20031;-60
2023/07/07 04:56:09;;;;;;;1.58;1.40;;;;;;;;;;8331845;28;20393;-60
2023/07/07 05:00:09;;;;;;;2.17;1.40;;;;;;;;;;8335532;28;20033;-60
2023/07/07 05:04:11;;;;;;;2.20;1.45;;;;;;;;;;8338802;28;20115;-60
2023/07/07 05:08:11;;;;;;;2.58;1.40;;;;;;;;;;8336928;28;20040;-60
2023/07/07 05:12:13;;;;;;;1.55;1.35;;;;;;;;;;8337261;28;20448;-60
2023/07/07 05:16:14;;;;;;;2.42;1.27;;;;;;;;;;8339826;28;20048;-60
2023/07/07 05:20:14;;;;;;;1.48;1.38;;;;;;;;;;8338228;28;20469;-60
2023/07/07 05:24:14;;;;;;;3.17;1.45;;;;;;;;;;8340845;28;20496;-60
2023/07/07 05:28:14;;;;;;;5.75;1.50;;;;;;;;;;8340647;28;20098;-60
2023/07/07 05:32:14;;;;;;;4.03;1.60;;;;;;;;;;8339558;28;20041;-61
2023/07/07 05:36:15;;;;;;;3.72;1.42;;;;;;;;;;8339553;28;20124;-61
2023/07/07 05:40:15;;;;;;;1.60;1.45;;;;;;;;;;8340447;28;20179;-60
2023/07/07 05:44:15;;;;;;;2.63;1.45;;;;;;;;;;8338866;28;21595;-60
2023/07/07 05:48:15;;;;;;;4.32;1.35;;;;;;;;;;8337809;28;20404;-61
2023/07/07 05:52:15;;;;;;;2.47;1.80;;;;;;;;;;8338846;28;20033;-61
2023/07/07 05:56:20;;;;;;;1.92;1.27;;;;;;;;;;8340223;28;20031;-61
2023/07/07 06:00:21;;;;;;;3.08;1.40;;;;;;;;;;8338686;28;20068;-61
2023/07/07 06:04:21;;;;;;;2.80;1.52;;;;;;;;;;8338696;28;20029;-61
2023/07/07 06:08:21;;;;;;;2.80;1.60;;;;;;;;;;8339579;28;20058;-61
2023/07/07 06:12:22;;;;;;;2.03;1.30;;;;;;;;;;8339856;28;20798;-61
2023/07/07 06:16:22;;;;;;;2.88;1.60;;;;;;;;;;8336418;28;20841;-61
2023/07/07 06:20:22;;;;;;;2.28;1.30;;;;;;;;;;8339129;28;20335;-61
2023/07/07 06:24:22;;;;;;;4.78;1.50;;;;;;;;;;8340474;28;20021;-61
2023/07/07 06:28:22;;;;;;;3.60;1.60;;;;;;;;;;8337557;28;20032;-61
2023/07/07 06:32:23;;;;;;;1.70;1.60;;;;;;;;;;8340002;28;20131;-60
2023/07/07 06:36:23;;;;;;;1.90;1.40;;;;;;;;;;8338784;28;20025;-61
2023/07/07 06:40:23;;;;;;;1.40;1.30;;;;;;;;;;8336550;28;20044;-61
2023/07/07 06:44:24;;;;;;;3.65;1.52;;;;;;;;;;8337989;28;20032;-60
2023/07/07 06:48:24;;;;;;;1.77;1.33;;;;;;;;;;8335904;28;21018;-60
2023/07/07 06:52:24;;;;;;;3.40;1.60;;;;;;;;;;8340107;28;20035;-61
2023/07/07 06:56:24;;;;;;;3.60;1.70;;;;;;;;;;8337052;28;20036;-61
2023/07/07 07:00:24;;;;;;;1.50;1.30;;;;;;;;;;8336026;28;20047;-61
2023/07/07 07:04:24;;;;;;;3.05;1.60;;;;;;;;;;8334867;28;20344;-61
2023/07/07 07:08:25;;;;;;;2.35;1.42;;;;;;;;;;8337979;28;20424;-61
2023/07/07 07:12:25;;;;;;;1.50;1.40;;;;;;;;;;8338922;28;20017;-61
2023/07/07 07:16:25;;;;;;;2.22;1.58;;;;;;;;;;8335553;28;20066;-60
2023/07/07 07:20:25;;;;;;;2.05;1.60;;;;;;;;;;8337010;28;20051;-61
2023/07/07 07:24:25;;;;;;;2.15;1.25;;;;;;;;;;8335710;28;20048;-61
2023/07/07 07:28:26;;;;;;;2.92;1.50;;;;;;;;;;8336068;28;20020;-61
2023/07/07 07:32:26;;;;;;;6.22;2.10;;;;;;;;;;8337589;28;20079;-61
2023/07/07 07:36:26;;;;;;;2.05;1.80;;;;;;;;;;8335211;28;20075;-61
2023/07/07 07:40:27;;;;;;;1.95;1.67;;;;;;;;;;8335036;28;20059;-61
2023/07/07 07:44:27;;;;;;;3.35;1.58;;;;;;;;;;8336456;28;20033;-61
2023/07/07 07:48:28;;;;;;;2.83;1.55;;;;;;;;;;8334994;28;20119;-61
2023/07/07 07:52:28;;;;;;;4.95;1.60;;;;;;;;;;8334357;28;20024;-60
2023/07/07 07:56:28;;;;;;;3.20;1.70;;;;;;;;;;8332862;28;20035;-60
2023/07/07 08:00:28;;;;;;;2.80;1.65;;;;;;;;;;8338251;28;20083;-61
2023/07/07 08:04:28;;;;;;;5.15;1.60;;;;;;;;;;8335575;28;20047;-61
2023/07/07 08:08:29;;;;;;;1.67;1.48;;;;;;;;;;8336492;28;20110;-61
2023/07/07 08:12:29;;;;;;;5.03;1.70;;;;;;;;;;8337228;28;20009;-61
2023/07/07 08:16:29;;;;;;;4.03;1.73;;;;;;;;;;8335001;28;20029;-61
2023/07/07 08:20:30;;;;;;;3.80;1.70;;;;;;;;;;8336220;28;20032;-60
2023/07/07 08:24:32;;;;;;;2.33;1.80;;;;;;;;;;8318009;28;20044;-60
2023/07/07 08:28:33;;;;;;;3.25;1.70;;;;;;;;;;8336460;28;20017;-61
2023/07/07 08:32:33;;;;;;;3.35;1.63;;;;;;;;;;8335390;28;20048;-61
2023/07/07 08:36:33;;;;;;;3.75;1.70;;;;;;;;;;8317872;28;20021;-60
2023/07/07 08:40:43;;;;;;;3.53;1.80;;;;;;;;;;8339807;28;20568;-61
2023/07/07 08:44:43;;;;;;;2.90;1.92;;;;;;;;;;8340661;28;20405;-60
2023/07/07 08:49:04;;;;;;;3.92;1.70;;;;;;;;;;8338731;28;20037;-61
2023/07/07 08:53:17;;;;;;;4.85;1.70;;;;;;;;;;8342755;28;20110;-61
2023/07/07 08:57:18;;;;;;;4.90;1.90;;;;;;;;;;8341316;28;20141;-60
2023/07/07 09:01:18;;;;;;;;;;;;;;;;;;8340653;28;20036;-61
2023/07/07 09:05:39;;;;;;;2.30;1.83;;;;;;;;;;8340747;28;20448;-60
2023/07/07 09:10:01;;;;;;;2.03;1.92;;;;;;;;;;8340698;28;20029;-60
2023/07/07 09:14:02;;;;;;;3.00;1.73;;;;;;;;;;8339541;28;20036;-60
2023/07/07 09:18:07;;;;;;;4.00;1.80;;;;;;;;;;8338592;28;20033;-61
2023/07/07 09:22:14;;;;;;;3.28;1.90;;;;;;;;;;8340279;28;20025;-61
2023/07/07 09:26:40;;;;;;;1.83;1.70;;;;;;;;;;8338548;28;20496;-60
2023/07/07 09:30:48;;;;;;;2.03;1.75;;;;;;;;;;8337058;28;20025;-61
2023/07/07 09:34:49;;;;;;;4.25;1.73;;;;;;;;;;8339940;28;20024;-60
2023/07/07 09:39:01;;;;;;;2.13;1.83;;;;;;;;;;8341164;28;20031;-60
2023/07/07 09:43:07;;;;;;;4.00;1.88;;;;;;;;;;8339825;28;20052;-61
2023/07/07 09:47:08;;;;;;;4.25;1.80;;;;;;;;;;8337608;28;20397;-61
2023/07/07 09:51:13;;;;;;;2.85;2.05;;;;;;;;;;8338049;28;20077;-60
2023/07/07 09:55:33;;;;;;;2.15;1.88;;;;;;;;;;8339016;28;20565;-60
2023/07/07 09:59:35;;;;;;;6.00;2.13;;;;;;;;;;8340677;28;20029;-61
2023/07/07 10:03:38;;;;;;;3.55;2.08;;;;;;;;;;8338919;28;20519;-60
2023/07/07 10:07:40;;;;;;;6.13;2.20;;;;;;;;;;8338278;28;20039;-60
2023/07/07 10:11:40;;;;;;;;;;;;;;;;;;8330230;28;20029;-61
2023/07/07 10:15:47;;;;;;;3.30;2.03;;;;;;;;;;8337945;28;20392;-60
2023/07/07 10:19:55;;;;;;;5.18;2.10;;;;;;;;;;8337597;28;20024;-60
2023/07/07 10:23:55;;;;;;;3.55;2.13;;;;;;;;;;8338899;28;20142;-60
2023/07/07 10:27:56;;;;;;;4.53;2.25;;;;;;;;;;8336554;28;20056;-60
2023/07/07 10:31:56;;;;;;;3.87;2.50;;;;;;;;;;8338183;28;20485;-60
2023/07/07 10:35:56;;;;;;;3.25;2.50;;;;;;;;;;8318223;28;20071;-60
2023/07/07 10:39:58;;;;;;;2.63;2.35;;;;;;;;;;8338134;28;20040;-60
2023/07/07 10:43:58;;;;;;;3.05;2.22;;;;;;;;;;8321922;28;20016;-60
2023/07/07 10:47:58;;;;;;;4.40;2.40;;;;;;;;;;8334395;28;20127;-60
2023/07/07 10:52:02;;;;;;;5.07;2.50;;;;;;;;;;8335316;28;20408;-60
2023/07/07 10:56:02;;;;;;;3.88;2.70;;;;;;;;;;8331280;28;20037;-60
2023/07/07 11:00:21;;;;;;;10.13;3.00;;;;;;;;;;8335515;28;20033;-60
2023/07/07 11:04:24;;;;;;;4.00;2.70;;;;;;;;;;8332145;28;20037;-60
2023/07/07 11:08:41;;;;;;;3.50;2.80;;;;;;;;;;8335934;28;20139;-60
2023/07/07 11:13:01;;;;;;;3.70;2.40;;;;;;;;;;8334948;28;20529;-61
2023/07/07 11:17:07;;;;;;;6.45;2.58;;;;;;;;;;8333803;28;20040;-61
2023/07/07 11:21:21;;;;;;;3.45;2.55;;;;;;;;;;8335085;28;20025;-61
2023/07/07 11:25:30;;;;;;;5.13;3.17;;;;;;;;;;8334006;28;20083;-61
2023/07/07 11:30:03;;;;;;;3.28;2.72;;;;;;;;;;8335709;28;20494;-60
2023/07/07 11:34:22;;;;;;;4.65;3.55;;;;;;;;;;8294024;28;20249;-61
2023/07/07 11:38:28;;;;;;;4.40;2.55;;;;;;;;;;8333762;28;20025;-61
2023/07/07 11:42:28;;;;;;;6.15;3.45;;;;;;;;;;8314303;28;20025;-60
2023/07/07 11:46:58;;;;;;;7.10;4.07;;;;;;;;;;8333481;28;20039;-61
2023/07/07 11:51:07;;;;;;;4.53;3.70;;;;;;;;;;8314700;28;20107;-61
2023/07/07 11:55:27;;;;;;;4.00;3.53;;;;;;;;;;8332589;28;20028;-60
2023/07/07 11:59:46;;;;;;;4.55;4.03;;;;;;;;;;8334124;28;20146;-60
2023/07/07 12:04:09;;;;;;;4.50;3.35;;;;;;;;;;8333697;28;20032;-61
2023/07/07 12:08:15;;;;;;;6.07;3.70;;;;;;;;;;8334476;28;20083;-61
2023/07/07 12:12:22;;;;;;;4.50;3.72;;;;;;;;;;8332146;28;20165;-60
2023/07/07 12:16:23;;;;;;;7.97;4.30;;;;;;;;;;8332575;28;20777;-60
2023/07/07 12:20:25;;;;;;;4.03;3.60;;;;;;;;;;8337025;28;20535;-60
2023/07/07 12:24:29;;;;;;;5.38;3.90;;;;;;;;;;8337351;28;20026;-61
2023/07/07 12:28:29;;;;;;;5.13;4.55;;;;;;;;;;8336203;28;20020;-60
2023/07/07 12:32:29;;;;;;;7.60;4.50;;;;;;;;;;8333026;28;20041;-61
2023/07/07 12:36:30;;;;;;;7.13;4.00;;;;;;;;;;8336014;28;20020;-61
2023/07/07 12:40:30;;;;;;;4.20;3.80;;;;;;;;;;8332873;28;20363;-61
2023/07/07 12:44:31;;;;;;;4.63;4.00;;;;;;;;;;8341927;28;20028;-61
2023/07/07 12:48:31;;;;;;;5.55;4.00;;;;;;;;;;8366234;28;20061;-60
2023/07/07 12:52:40;;;;;;;4.73;3.77;;;;;;;;;;8365734;28;20456;-61
2023/07/07 12:56:59;;;;;;;5.15;4.38;;;;;;;;;;8366338;28;20032;-61
2023/07/07 13:01:05;;;;;;;7.97;4.70;;;;;;;;;;8366571;28;20381;-61
2023/07/07 13:05:19;;;;;;;9.05;5.07;;;;;;;;;;8366840;28;20028;-61
2023/07/07 13:09:21;;;;;;;5.60;4.70;;;;;;;;;;8367120;28;20085;-61
2023/07/07 13:13:25;;;;;;;5.80;5.20;;;;;;;;;;8345373;28;20040;-61
2023/07/07 13:17:27;;;;;;;7.35;4.65;;;;;;;;;;8364373;28;20486;-63
2023/07/07 13:21:30;;;;;;;5.82;4.63;;;;;;;;;;8368361;28;20619;-62
2023/07/07 13:25:35;;;;;;;5.32;4.78;;;;;;;;;;8371639;28;20020;-63
2023/07/07 13:29:38;;;;;;;6.40;4.80;;;;;;;;;;8372682;28;20602;-62
2023/07/07 13:33:38;;;;;;;5.40;4.68;;;;;;;;;;8369205;28;20039;-62
2023/07/07 13:37:38;;;;;;;6.00;4.80;;;;;;;;;;8371049;28;20655;-62
2023/07/07 13:41:42;;;;;;;7.70;4.80;;;;;;;;;;8367194;28;20136;-63
2023/07/07 13:45:42;;;;;;;6.22;4.80;;;;;;;;;;8339339;28;20163;-62
2023/07/07 13:49:44;;;;;;;7.63;4.80;;;;;;;;;;8335114;28;20117;-62
2023/07/07 13:53:44;;;;;;;8.23;5.30;;;;;;;;;;8335497;28;20117;-62
2023/07/07 13:57:45;;;;;;;6.63;4.93;;;;;;;;;;8334780;28;20738;-62
2023/07/07 14:01:45;;;;;;;5.83;5.00;;;;;;;;;;8316130;28;20044;-62
2023/07/07 14:05:48;;;;;;;5.97;5.13;;;;;;;;;;8335133;28;20421;-62
2023/07/07 14:09:49;;;;;;;7.38;5.47;;;;;;;;;;8334245;28;20037;-62
2023/07/07 14:13:56;;;;;;;6.43;5.50;;;;;;;;;;8336467;28;20097;-62
2023/07/07 14:17:59;;;;;;;6.72;5.53;;;;;;;;;;8332521;28;20376;-62
2023/07/07 14:22:00;;;;;;;7.25;5.00;;;;;;;;;;8323766;28;20606;-62
2023/07/07 14:26:00;;;;;;;6.87;5.20;;;;;;;;;;8331902;28;20440;-62
2023/07/07 14:30:01;;;;;;;5.77;5.27;;;;;;;;;;8332910;28;20151;-62
2023/07/07 14:34:02;;;;;;;5.87;5.37;;;;;;;;;;8314936;28;20975;-62
2023/07/07 14:38:04;;;;;;;7.70;5.10;;;;;;;;;;8333158;28;20025;-62
2023/07/07 14:42:17;;;;;;;6.07;5.43;;;;;;;;;;8328790;28;20051;-62
2023/07/07 14:46:23;;;;;;;7.20;5.63;;;;;;;;;;8329382;28;20052;-62
2023/07/07 14:50:24;;;;;;;5.65;5.15;;;;;;;;;;8331084;28;20397;-62
2023/07/07 14:54:26;;;;;;;6.83;5.73;;;;;;;;;;8314936;28;20106;-62
2023/07/07 14:58:28;;;;;;;8.02;5.60;;;;;;;;;;8329400;28;20070;-62
2023/07/07 15:02:28;;;;;;;;;;;;;;;;;;8333788;28;20029;-62
2023/07/07 15:06:32;;;;;;;6.25;5.50;;;;;;;;;;8333497;28;19912;-62
2023/07/07 15:10:33;;;;;;;6.05;5.35;;;;;;;;;;8335470;28;20618;-62
2023/07/07 15:14:33;;;;;;;6.30;5.70;;;;;;;;;;8317260;28;20029;-62
2023/07/07 15:18:33;;;;;;;7.50;5.65;;;;;;;;;;8336990;28;20338;-62
2023/07/07 15:22:33;;;;;;;15.68;7.03;;;;;;;;;;8334342;28;20427;-62
2023/07/07 15:26:34;;;;;;;12.07;8.38;;;;;;;;;;8332552;28;20136;-62
2023/07/07 15:30:34;;;;;;;13.13;11.03;;;;;;;;;;8335459;28;20036;-62
2023/07/07 15:34:34;;;;;;;16.75;14.32;;;;;;;;;;8333148;28;20032;-62
2023/07/07 15:38:43;;;;;;;10.70;7.63;;;;;;;;;;8333534;28;20035;-62
2023/07/07 15:42:44;;;;;;;8.75;7.45;;;;;;;;;;8333625;28;20485;-62
2023/07/07 15:46:44;;;;;;;9.00;7.20;;;;;;;;;;8331289;28;20049;-62
2023/07/07 15:50:45;;;;;;;8.70;7.37;;;;;;;;;;8331253;28;20037;-61
2023/07/07 15:54:45;;;;;;;7.67;6.77;;;;;;;;;;8331295;28;20024;-62
2023/07/07 15:58:45;;;;;;;7.60;6.15;;;;;;;;;;8330548;28;20422;-62
2023/07/07 16:02:45;;;;;;;14.18;6.28;;;;;;;;;;8311363;28;20033;-62
2023/07/07 16:06:47;;;;;;;7.53;6.30;;;;;;;;;;8325988;28;20016;-61
2023/07/07 16:10:47;;;;;;;7.57;6.00;;;;;;;;;;8325012;28;20087;-62
2023/07/07 16:14:47;;;;;;;7.35;5.72;;;;;;;;;;8327343;28;20078;-62
2023/07/07 16:18:47;;;;;;;8.25;6.00;;;;;;;;;;8326409;28;20045;-62
2023/07/07 16:22:48;;;;;;;7.50;6.00;;;;;;;;;;8331609;28;20123;-62
2023/07/07 16:26:50;;;;;;;7.90;5.43;;;;;;;;;;8321869;28;20035;-62
2023/07/07 16:30:51;;;;;;;9.13;6.05;;;;;;;;;;8332510;28;20600;-62
2023/07/07 16:34:51;;;;;;;7.63;5.50;;;;;;;;;;8334240;28;20382;-62
2023/07/07 16:38:51;;;;;;;6.63;5.60;;;;;;;;;;8335659;28;20110;-62
2023/07/07 16:42:53;;;;;;;11.60;6.13;;;;;;;;;;8334870;28;20029;-62
2023/07/07 16:46:53;;;;;;;7.73;5.77;;;;;;;;;;8332672;28;20036;-62
2023/07/07 16:50:55;;;;;;;11.40;5.97;;;;;;;;;;8333567;28;20024;-62
2023/07/07 16:54:55;;;;;;;6.20;5.60;;;;;;;;;;8334092;28;20029;-62
2023/07/07 16:58:55;;;;;;;6.68;5.93;;;;;;;;;;8335282;28;20071;-62
2023/07/07 17:02:55;;;;;;;9.30;6.30;;;;;;;;;;8340755;28;20143;-62
2023/07/07 17:06:56;;;;;;;9.93;6.70;;;;;;;;;;8339838;28;20028;-62
2023/07/07 17:10:56;;;;;;;6.97;6.05;;;;;;;;;;8340233;28;20021;-61
2023/07/07 17:14:56;;;;;;;7.32;5.80;;;;;;;;;;8341214;28;20087;-62
2023/07/07 17:18:57;;;;;;;7.73;6.17;;;;;;;;;;8338445;28;20033;-62
2023/07/07 17:22:58;;;;;;;7.53;6.13;;;;;;;;;;8340780;28;20632;-62
2023/07/07 17:26:58;;;;;;;8.23;5.65;;;;;;;;;;8337071;28;20025;-62
2023/07/07 17:30:58;;;;;;;9.10;5.65;;;;;;;;;;8337051;28;20048;-62
2023/07/07 17:34:58;;;;;;;6.60;5.90;;;;;;;;;;8341221;28;20019;-62
2023/07/07 17:38:59;;;;;;;6.30;5.40;;;;;;;;;;8337719;28;20029;-62
2023/07/07 17:42:59;;;;;;;11.10;5.55;;;;;;;;;;8338766;28;20024;-62
2023/07/07 17:46:59;;;;;;;7.95;6.22;;;;;;;;;;8338411;28;20071;-62
2023/07/07 17:51:00;;;;;;;9.32;6.10;;;;;;;;;;8339593;28;20024;-62
2023/07/07 17:55:00;;;;;;;7.15;5.60;;;;;;;;;;8339332;28;20075;-62
2023/07/07 17:59:01;;;;;;;9.17;6.20;;;;;;;;;;8339298;28;20024;-62
2023/07/07 18:03:01;;;;;;;7.18;6.45;;;;;;;;;;8336471;28;20791;-63
2023/07/07 18:07:01;;;;;;;8.50;5.80;;;;;;;;;;8338617;28;20017;-62
2023/07/07 18:11:01;;;;;;;8.55;6.20;;;;;;;;;;8336397;28;20282;-63
2023/07/07 18:15:02;;;;;;;8.95;6.13;;;;;;;;;;8339830;28;20048;-62
2023/07/07 18:19:08;;;;;;;9.98;6.38;;;;;;;;;;8339350;28;20120;-62
2023/07/07 18:23:10;;;;;;;8.48;6.25;;;;;;;;;;8337755;28;20527;-62
2023/07/07 18:27:10;;;;;;;11.82;6.05;;;;;;;;;;8339168;28;20135;-62
2023/07/07 18:31:11;;;;;;;8.30;6.20;;;;;;;;;;8336012;28;20087;-62
2023/07/07 18:35:11;;;;;;;9.93;5.78;;;;;;;;;;8338550;28;20024;-62
2023/07/07 18:39:17;;;;;;;7.50;6.00;;;;;;;;;;8337172;28;20063;-62
2023/07/07 18:43:18;;;;;;;9.93;6.05;;;;;;;;;;8337629;28;20512;-62
2023/07/07 18:47:18;;;;;;;6.47;5.75;;;;;;;;;;8336319;28;20685;-62
2023/07/07 18:51:20;;;;;;;7.20;6.15;;;;;;;;;;8335468;28;20024;-62
2023/07/07 18:55:20;;;;;;;9.45;6.38;;;;;;;;;;8335601;28;20032;-62
2023/07/07 18:59:22;;;;;;;12.30;6.13;;;;;;;;;;8322533;28;20759;-62
2023/07/07 19:03:23;;;;;;;12.43;6.07;;;;;;;;;;8334299;28;20032;-62
2023/07/07 19:07:23;;;;;;;9.73;6.00;;;;;;;;;;8333562;28;20075;-62
2023/07/07 19:11:23;;;;;;;8.93;5.85;;;;;;;;;;8334239;28;20016;-62
2023/07/07 19:15:23;;;;;;;10.97;6.60;;;;;;;;;;8333132;28;20037;-62
2023/07/07 19:19:24;;;;;;;11.80;6.38;;;;;;;;;;8337236;28;20073;-62
2023/07/07 19:23:25;;;;;;;9.60;6.22;;;;;;;;;;8334132;28;20048;-62
2023/07/07 19:27:26;;;;;;;12.02;6.10;;;;;;;;;;8336129;28;20574;-62
2023/07/07 19:31:27;;;;;;;12.32;6.28;;;;;;;;;;8335650;28;20332;-62
2023/07/07 19:35:27;;;;;;;9.90;6.28;;;;;;;;;;8335383;28;20047;-62
2023/07/07 19:39:27;;;;;;;10.70;6.43;;;;;;;;;;8336989;28;20462;-62
2023/07/07 19:43:28;;;;;;;11.10;5.80;;;;;;;;;;8335337;28;20197;-62
2023/07/07 19:47:28;;;;;;;12.07;5.97;;;;;;;;;;8335242;28;20043;-62
2023/07/07 19:51:29;;;;;;;7.33;5.60;;;;;;;;;;8314991;28;20024;-62
2023/07/07 19:55:29;;;;;;;9.27;6.68;;;;;;;;;;8323353;28;20051;-62
2023/07/07 19:59:29;;;;;;;11.88;6.47;;;;;;;;;;8337082;28;20040;-62
2023/07/07 20:03:30;;;;;;;9.25;6.20;;;;;;;;;;8334535;28;20037;-62
2023/07/07 20:07:30;;;;;;;9.43;5.68;;;;;;;;;;8336271;28;20021;-62
2023/07/07 20:11:31;;;;;;;6.82;5.95;;;;;;;;;;8334813;28;20017;-62
2023/07/07 20:15:31;;;;;;;8.50;6.35;;;;;;;;;;8334262;28;20032;-62
2023/07/07 20:19:32;;;;;;;15.15;6.60;;;;;;;;;;8336341;28;20030;-62
2023/07/07 20:23:32;;;;;;;10.25;6.88;;;;;;;;;;8339868;28;20112;-62
2023/07/07 20:27:32;;;;;;;10.75;6.55;;;;;;;;;;8334561;28;20021;-62
2023/07/07 20:31:32;;;;;;;10.27;6.43;;;;;;;;;;8335470;28;20033;-62
2023/07/07 20:35:32;;;;;;;9.85;6.30;;;;;;;;;;8333499;28;20351;-62
2023/07/07 20:39:33;;;;;;;11.15;6.85;;;;;;;;;;8342559;28;20544;-62
2023/07/07 20:43:35;;;;;;;8.80;6.30;;;;;;;;;;8339875;28;20033;-62
2023/07/07 20:47:35;;;;;;;13.67;6.60;;;;;;;;;;8340708;28;20041;-62
2023/07/07 20:51:35;;;;;;;9.90;6.25;;;;;;;;;;8339847;28;20087;-62
2023/07/07 20:55:35;;;;;;;10.05;6.82;;;;;;;;;;8339788;28;20426;-62
2023/07/07 20:59:36;;;;;;;10.35;7.00;;;;;;;;;;8340699;28;20036;-62
2023/07/07 21:03:36;;;;;;;10.27;7.68;;;;;;;;;;8337813;28;20036;-61
2023/07/07 21:07:37;;;;;;;9.82;6.88;;;;;;;;;;8338584;28;20139;-62
2023/07/07 21:11:37;;;;;;;12.75;7.30;;;;;;;;;;8339659;28;20028;-62
2023/07/07 21:15:38;;;;;;;11.45;6.72;;;;;;;;;;8339234;28;20086;-62
2023/07/07 21:19:38;;;;;;;8.65;6.55;;;;;;;;;;8339588;28;20059;-62
2023/07/07 21:23:38;;;;;;;9.20;6.53;;;;;;;;;;8336639;28;20117;-62
2023/07/07 21:27:39;;;;;;;8.75;6.53;;;;;;;;;;8336760;28;20020;-62
2023/07/07 21:31:40;;;;;;;9.00;6.63;;;;;;;;;;8329110;28;20061;-62
2023/07/07 21:35:40;;;;;;;10.00;7.07;;;;;;;;;;8328091;28;20028;-61
2023/07/07 21:39:40;;;;;;;8.57;6.53;;;;;;;;;;8332758;28;20032;-61
2023/07/07 21:43:41;;;;;;;11.38;6.47;;;;;;;;;;8337458;28;20343;-62
2023/07/07 21:47:44;;;;;;;9.65;6.45;;;;;;;;;;8338744;28;20719;-61
2023/07/07 21:51:44;;;;;;;9.52;7.25;;;;;;;;;;8337944;28;20056;-63
2023/07/07 21:55:45;;;;;;;13.93;6.87;;;;;;;;;;8337978;28;20108;-61
2023/07/07 21:59:45;;;;;;;8.57;6.50;;;;;;;;;;8340505;28;20083;-61
2023/07/07 22:03:46;;;;;;;9.33;6.47;;;;;;;;;;8334099;28;20048;-62
2023/07/07 22:07:47;;;;;;;8.73;7.03;;;;;;;;;;8336129;28;20031;-61
2023/07/07 22:11:47;;;;;;;11.70;6.70;;;;;;;;;;8337868;28;20020;-61
2023/07/07 22:15:48;;;;;;;8.18;6.70;;;;;;;;;;8319598;28;20039;-61
2023/07/07 22:19:49;;;;;;;9.20;6.47;;;;;;;;;;8339866;28;20370;-61
2023/07/07 22:23:49;;;;;;;7.65;6.15;;;;;;;;;;8337230;28;20051;-61
2023/07/07 22:27:49;;;;;;;9.55;6.38;;;;;;;;;;8339258;28;20029;-61
2023/07/07 22:31:50;;;;;;;9.25;6.72;;;;;;;;;;8337327;28;20090;-61
2023/07/07 22:35:51;;;;;;;7.50;6.03;;;;;;;;;;8293856;28;20052;-61
2023/07/07 22:39:51;;;;;;;8.88;6.38;;;;;;;;;;8303912;28;20029;-62
2023/07/07 22:43:51;;;;;;;9.77;6.67;;;;;;;;;;8315969;28;20132;-61
2023/07/07 22:47:52;;;;;;;8.73;6.43;;;;;;;;;;8337904;28;20307;-61
2023/07/07 22:51:52;;;;;;;8.25;6.70;;;;;;;;;;8339365;28;20024;-61
2023/07/07 22:55:52;;;;;;;9.90;6.10;;;;;;;;;;8334316;28;20036;-61
2023/07/07 22:59:53;;;;;;;9.20;6.30;;;;;;;;;;8338225;28;20278;-61
2023/07/07 23:03:54;;;;;;;7.33;6.03;;;;;;;;;;8334522;28;20313;-61
2023/07/07 23:07:55;;;;;;;8.90;6.07;;;;;;;;;;8336432;28;20103;-62
2023/07/07 23:11:55;;;;;;;8.15;6.25;;;;;;;;;;8338235;28;20020;-61
2023/07/07 23:15:55;;;;;;;13.40;6.27;;;;;;;;;;8338517;28;20036;-61
2023/07/07 23:19:56;;;;;;;7.75;6.15;;;;;;;;;;8335029;28;20052;-61
2023/07/07 23:23:58;;;;;;;9.23;6.40;;;;;;;;;;8339889;28;20031;-61
2023/07/07 23:28:04;;;;;;;7.93;6.07;;;;;;;;;;8336016;28;20033;-61
2023/07/07 23:32:10;;;;;;;8.25;6.03;;;;;;;;;;8326255;28;20041;-61
2023/07/07 23:36:17;;;;;;;9.38;6.47;;;;;;;;;;8333640;28;20866;-61
2023/07/07 23:40:19;;;;;;;8.27;6.40;;;;;;;;;;8333738;28;20120;-61
2023/07/07 23:44:19;;;;;;;7.80;6.28;;;;;;;;;;8333661;28;20646;-61
2023/07/07 23:48:20;;;;;;;8.98;6.47;;;;;;;;;;8335036;28;20037;-61
2023/07/07 23:52:20;;;;;;;10.65;6.13;;;;;;;;;;8338769;28;20495;-61
2023/07/07 23:56:21;;;;;;;9.33;6.40;;;;;;;;;;8336299;28;20052;-61
